createdAt,value
2024-02-08T00:00:17.047Z,20.60
2024-02-08T00:02:47.477Z,21.88
2024-02-08T00:05:17.603Z,23.52
2024-02-08T00:07:46.128Z,22.30
2024-02-08T00:10:15.308Z,19.05
2024-02-08T00:12:42.399Z,18.33
2024-02-08T00:15:18.443Z,20.23
2024-02-08T00:17:47.148Z,17.30
2024-02-08T00:20:16.333Z,19.90
2024-02-08T00:22:49.161Z,17.10
2024-02-08T00:25:16.279Z,16.58
2024-02-08T00:27:54.922Z,19.65
2024-02-08T00:30:21.902Z,14.82
2024-02-08T00:32:49.126Z,17.23
2024-02-08T00:35:17.123Z,16.92
2024-02-08T00:37:51.774Z,20.17
2024-02-08T00:40:20.042Z,18.70
2024-02-08T00:42:50.039Z,15.75
2024-02-08T00:45:17.583Z,16.77
2024-02-08T00:47:50.688Z,15.80
2024-02-08T00:50:18.497Z,16.38
2024-02-08T00:52:45.915Z,18.60
2024-02-08T00:55:13.341Z,15.48
2024-02-08T00:57:42.170Z,19.07
2024-02-08T01:00:14.743Z,19.27
2024-02-08T01:02:41.873Z,18.65
2024-02-08T01:05:09.900Z,17.80
2024-02-08T01:07:37.525Z,18.33
2024-02-08T01:10:07.447Z,23.27
2024-02-08T01:12:35.078Z,15.55
2024-02-08T01:15:03.756Z,18.77
2024-02-08T01:17:32.882Z,17.40
2024-02-08T01:19:59.861Z,15.05
2024-02-08T01:22:27.309Z,18.63
2024-02-08T01:24:54.607Z,18.10
2024-02-08T01:27:21.780Z,18.42
2024-02-08T01:29:50.552Z,19.83
2024-02-08T01:32:21.306Z,15.77
2024-02-08T01:34:48.365Z,15.47
2024-02-08T01:37:16.019Z,17.75
2024-02-08T01:39:43.705Z,20.65
2024-02-08T01:42:15.677Z,18.13
2024-02-08T01:44:53.633Z,14.98
2024-02-08T01:47:23.533Z,19.70
2024-02-08T01:49:54.405Z,17.77
2024-02-08T01:52:21.537Z,14.18
2024-02-08T01:54:48.612Z,15.27
2024-02-08T01:57:16.199Z,15.13
2024-02-08T01:59:46.319Z,14.10
2024-02-08T02:02:13.577Z,17.70
2024-02-08T02:04:46.922Z,18.40
2024-02-08T02:07:14.359Z,16.88
2024-02-08T02:09:41.757Z,17.00
2024-02-08T02:12:16.834Z,17.13
2024-02-08T02:14:48.178Z,20.35
2024-02-08T02:17:19.201Z,16.08
2024-02-08T02:19:46.629Z,17.45
2024-02-08T02:22:17.933Z,18.60
2024-02-08T02:24:53.624Z,18.30
2024-02-08T02:27:21.628Z,17.23
2024-02-08T02:29:48.709Z,18.45
2024-02-08T02:32:16.970Z,15.20
2024-02-08T02:34:49.452Z,16.83
2024-02-08T02:37:16.526Z,19.77
2024-02-08T02:39:45.658Z,19.73
2024-02-08T02:42:15.535Z,16.33
2024-02-08T02:44:42.543Z,18.77
2024-02-08T02:47:12.261Z,18.58
2024-02-08T02:49:41.960Z,15.83
2024-02-08T02:52:09.411Z,18.27
2024-02-08T02:54:37.085Z,16.70
2024-02-08T02:57:05.178Z,17.58
2024-02-08T02:59:35.962Z,23.05
2024-02-08T03:02:02.933Z,21.00
2024-02-08T03:04:33.766Z,18.80
2024-02-08T03:07:00.784Z,16.02
2024-02-08T03:09:28.011Z,15.23
2024-02-08T03:11:55.708Z,21.45
2024-02-08T03:14:23.760Z,16.57
2024-02-08T03:16:50.608Z,17.88
2024-02-08T03:19:19.087Z,18.70
2024-02-08T03:21:46.516Z,16.33
2024-02-08T03:24:21.156Z,16.75
2024-02-08T03:26:57.321Z,17.90
2024-02-08T03:29:26.444Z,22.92
2024-02-08T03:31:54.424Z,16.98
2024-02-08T03:34:21.871Z,15.05
2024-02-08T03:36:48.833Z,17.65
2024-02-08T03:39:16.348Z,19.07
2024-02-08T03:41:45.489Z,17.73
2024-02-08T03:44:12.650Z,16.05
2024-02-08T03:46:44.182Z,13.95
2024-02-08T03:49:14.647Z,16.52
2024-02-08T03:51:42.103Z,17.87
2024-02-08T03:54:19.443Z,18.45
2024-02-08T03:56:50.010Z,16.02
2024-02-08T03:59:21.319Z,19.35
2024-02-08T04:01:50.612Z,16.85
2024-02-08T04:04:17.894Z,16.50
2024-02-08T04:06:47.972Z,15.10
2024-02-08T04:09:15.401Z,14.93
2024-02-08T04:11:46.238Z,15.68
2024-02-08T04:14:16.245Z,18.45
2024-02-08T04:16:45.926Z,17.10
2024-02-08T04:19:13.033Z,20.73
2024-02-08T04:21:49.484Z,24.20
2024-02-08T04:24:16.876Z,23.85
2024-02-08T04:26:44.177Z,24.25
2024-02-08T04:29:16.192Z,19.97
2024-02-08T04:31:49.667Z,22.90
2024-02-08T04:34:16.748Z,25.02
2024-02-08T04:36:46.233Z,20.83
2024-02-08T04:39:13.216Z,21.25
2024-02-08T04:41:45.296Z,20.60
2024-02-08T04:44:21.223Z,21.40
2024-02-08T04:46:55.479Z,18.17
2024-02-08T04:49:22.359Z,18.92
2024-02-08T04:51:49.593Z,23.65
2024-02-08T04:54:16.562Z,19.73
2024-02-08T04:56:44.121Z,23.60
2024-02-08T04:59:21.786Z,18.23
2024-02-08T05:01:53.185Z,20.92
2024-02-08T05:04:20.979Z,19.17
2024-02-08T05:06:49.431Z,18.43
2024-02-08T05:09:16.540Z,20.70
2024-02-08T05:11:46.178Z,20.17
2024-02-08T05:14:13.222Z,19.55
2024-02-08T05:16:42.824Z,23.33
2024-02-08T05:19:18.697Z,20.33
2024-02-08T05:21:46.734Z,22.25
2024-02-08T05:24:16.476Z,25.92
2024-02-08T05:26:51.031Z,20.65
2024-02-08T05:29:18.205Z,18.58
2024-02-08T05:31:48.680Z,21.57
2024-02-08T05:34:17.552Z,19.48
2024-02-08T05:36:46.820Z,22.05
2024-02-08T05:39:16.933Z,21.02
2024-02-08T05:41:46.276Z,20.30
2024-02-08T05:44:15.489Z,20.87
2024-02-08T05:46:48.474Z,16.90
2024-02-08T05:49:16.611Z,20.88
2024-02-08T05:51:46.486Z,19.33
2024-02-08T05:54:17.146Z,21.92
2024-02-08T05:56:48.073Z,17.23
2024-02-08T05:59:15.971Z,18.75
2024-02-08T06:01:46.111Z,23.40
2024-02-08T06:04:16.182Z,20.75
2024-02-08T06:06:45.103Z,20.85
2024-02-08T06:09:12.111Z,18.93
2024-02-08T06:11:41.486Z,19.00
2024-02-08T06:14:08.594Z,16.25
2024-02-08T06:16:35.741Z,20.63
2024-02-08T06:19:03.158Z,16.95
2024-02-08T06:21:31.176Z,23.47
2024-02-08T06:23:58.119Z,17.25
2024-02-08T06:26:25.401Z,19.88
2024-02-08T06:28:52.356Z,18.23
2024-02-08T06:31:20.383Z,18.95
2024-02-08T06:33:48.748Z,18.00
2024-02-08T06:36:15.705Z,14.18
2024-02-08T06:38:42.848Z,19.08
2024-02-08T06:41:12.560Z,16.40
2024-02-08T06:43:41.893Z,13.95
2024-02-08T06:46:11.988Z,16.97
2024-02-08T06:48:40.428Z,21.08
2024-02-08T06:51:08.837Z,18.10
2024-02-08T06:53:39.283Z,16.08
2024-02-08T06:56:07.037Z,15.60
2024-02-08T06:58:34.043Z,16.97
2024-02-08T07:01:05.159Z,17.40
2024-02-08T07:03:47.094Z,17.00
2024-02-08T07:06:20.006Z,16.88
2024-02-08T07:08:47.077Z,19.67
2024-02-08T07:11:17.722Z,17.33
2024-02-08T07:13:47.851Z,16.80
2024-02-08T07:16:18.281Z,17.30
2024-02-08T07:18:49.804Z,14.80
2024-02-08T07:21:25.592Z,18.23
2024-02-08T07:23:52.628Z,19.27
2024-02-08T07:26:19.847Z,18.73
2024-02-08T07:28:49.536Z,22.67
2024-02-08T07:31:16.619Z,14.85
2024-02-08T07:33:45.917Z,17.25
2024-02-08T07:36:15.220Z,17.90
2024-02-08T07:38:42.227Z,15.95
2024-02-08T07:41:11.197Z,14.48
2024-02-08T07:43:46.082Z,17.35
2024-02-08T07:46:13.051Z,19.67
2024-02-08T07:48:46.085Z,13.20
2024-02-08T07:51:15.596Z,17.45
2024-02-08T07:53:57.866Z,19.02
2024-02-08T07:56:25.191Z,14.32
2024-02-08T07:58:54.146Z,18.52
2024-02-08T08:01:21.556Z,18.17
2024-02-08T08:03:49.639Z,14.13
2024-02-08T08:06:19.554Z,18.23
2024-02-08T08:08:52.201Z,19.42
2024-02-08T08:11:21.183Z,16.27
2024-02-08T08:13:51.892Z,16.13
2024-02-08T08:16:19.835Z,14.88
2024-02-08T08:18:49.781Z,15.50
2024-02-08T08:21:19.327Z,13.55
2024-02-08T08:23:48.738Z,14.45
2024-02-08T08:26:24.447Z,16.50
2024-02-08T08:29:04.467Z,17.13
2024-02-08T08:32:00.567Z,15.02
2024-02-08T08:41:03.546Z,14.03
2024-02-08T08:43:37.389Z,16.10
2024-02-08T08:49:33.998Z,15.25
2024-02-08T08:52:07.834Z,15.88
2024-02-08T08:54:56.032Z,18.53
2024-02-08T08:58:08.698Z,17.88
2024-02-08T09:01:24.352Z,15.52
2024-02-08T09:03:58.790Z,18.42
2024-02-08T09:06:32.300Z,14.30
2024-02-08T09:09:02.741Z,15.17
2024-02-08T09:11:30.305Z,39.90
2024-02-08T09:13:57.753Z,27.02
2024-02-08T09:16:25.716Z,21.23
2024-02-08T09:18:55.091Z,31.98
2024-02-08T09:21:22.581Z,33.27
2024-02-08T09:23:53.122Z,23.70
2024-02-08T09:26:24.343Z,23.60
2024-02-08T09:28:52.061Z,19.13
2024-02-08T09:31:22.105Z,20.05
2024-02-08T09:33:49.732Z,17.80
2024-02-08T09:36:17.108Z,20.02
2024-02-08T09:38:47.998Z,17.50
2024-02-08T09:41:19.416Z,19.00
2024-02-08T09:43:49.288Z,16.63
2024-02-08T09:46:18.849Z,20.23
2024-02-08T09:48:46.537Z,21.55
2024-02-08T09:51:17.704Z,19.17
2024-02-08T09:53:48.052Z,20.23
2024-02-08T09:56:19.326Z,17.55
2024-02-08T09:58:51.036Z,17.77
2024-02-08T10:01:21.189Z,30.25
2024-02-08T10:03:55.178Z,23.73
2024-02-08T10:06:22.968Z,28.98
2024-02-08T10:08:50.830Z,52.15
2024-02-08T10:11:20.604Z,26.90
2024-02-08T10:13:47.747Z,24.48
2024-02-08T10:16:15.740Z,20.80
2024-02-08T10:18:43.034Z,22.33
2024-02-08T10:21:16.244Z,22.80
2024-02-08T10:24:00.670Z,19.80
2024-02-08T10:26:38.768Z,21.73
2024-02-08T10:29:11.609Z,17.45
2024-02-08T10:31:41.799Z,18.63
2024-02-08T10:34:12.919Z,19.00
2024-02-08T10:36:44.301Z,21.50
2024-02-08T10:39:12.297Z,22.00
2024-02-08T10:41:43.356Z,17.15
2024-02-08T10:44:15.796Z,21.58
2024-02-08T10:46:43.148Z,17.70
2024-02-08T10:49:11.844Z,18.80
2024-02-08T10:51:41.245Z,27.73
2024-02-08T10:54:11.058Z,16.98
2024-02-08T10:56:39.990Z,17.60
2024-02-08T10:59:07.353Z,23.00
2024-02-08T11:01:46.790Z,19.27
2024-02-08T11:04:21.327Z,16.83
2024-02-08T11:07:02.255Z,18.70
2024-02-08T11:09:29.673Z,20.15
2024-02-08T11:12:11.001Z,24.73
2024-02-08T11:14:46.935Z,23.40
2024-02-08T11:17:20.088Z,22.58
2024-02-08T11:19:56.621Z,21.55
2024-02-08T11:22:28.690Z,27.38
2024-02-08T11:24:55.978Z,72.35
2024-02-08T11:27:26.126Z,22.27
2024-02-08T11:29:59.262Z,27.23
2024-02-08T11:32:26.446Z,29.88
2024-02-08T11:34:56.512Z,26.50
2024-02-08T11:37:30.978Z,30.75
2024-02-08T11:40:05.245Z,22.77
2024-02-08T11:42:42.669Z,22.92
2024-02-08T11:45:13.117Z,23.30
2024-02-08T11:47:42.679Z,25.30
2024-02-08T11:50:22.244Z,22.35
2024-02-08T11:52:58.593Z,23.80
2024-02-08T11:55:28.061Z,35.45
2024-02-08T11:57:57.816Z,25.73
2024-02-08T12:00:28.198Z,27.65
2024-02-08T12:03:01.459Z,20.85
2024-02-08T12:05:33.025Z,32.87
2024-02-08T12:08:12.673Z,25.17
2024-02-08T12:10:52.652Z,22.92
2024-02-08T12:13:21.086Z,24.58
2024-02-08T12:15:53.734Z,24.20
2024-02-08T12:18:21.065Z,27.47
2024-02-08T12:20:54.400Z,21.02
2024-02-08T12:23:25.547Z,22.73
2024-02-08T12:25:57.108Z,20.35
2024-02-08T12:28:29.525Z,27.13
2024-02-08T12:30:59.669Z,19.80
2024-02-08T12:33:37.118Z,22.90
2024-02-08T12:36:07.048Z,19.85
2024-02-08T12:38:39.000Z,15.13
2024-02-08T12:41:14.154Z,19.70
2024-02-08T12:43:53.184Z,16.97
2024-02-08T12:46:24.122Z,17.08
2024-02-08T12:48:52.943Z,17.98
2024-02-08T12:51:20.566Z,15.63
2024-02-08T12:53:48.153Z,15.05
2024-02-08T12:56:19.701Z,16.13
2024-02-08T12:58:46.864Z,15.88
2024-02-08T13:01:16.842Z,17.98
2024-02-08T13:03:47.383Z,19.70
2024-02-08T13:06:17.672Z,18.70
2024-02-08T13:08:45.294Z,20.23
2024-02-08T13:11:19.736Z,18.30
2024-02-08T13:13:47.326Z,17.50
2024-02-08T13:16:14.525Z,15.63
2024-02-08T13:18:54.006Z,18.83
2024-02-08T13:21:21.751Z,15.53
2024-02-08T13:23:48.794Z,17.60
2024-02-08T13:26:21.885Z,13.38
2024-02-08T13:28:57.100Z,16.13
2024-02-08T13:31:25.029Z,11.63
2024-02-08T13:33:52.344Z,12.70
2024-02-08T13:36:19.792Z,12.00
2024-02-08T13:38:46.746Z,12.75
2024-02-08T13:41:18.538Z,12.30
2024-02-08T13:43:46.004Z,15.68
2024-02-08T13:46:16.486Z,15.50
2024-02-08T13:48:46.876Z,11.68
2024-02-08T13:51:16.489Z,11.93
2024-02-08T13:53:47.013Z,11.15
2024-02-08T13:56:17.170Z,15.90
2024-02-08T13:58:46.725Z,13.10
2024-02-08T14:01:16.411Z,11.98
2024-02-08T14:03:46.832Z,14.95
2024-02-08T14:06:26.020Z,11.93
2024-02-08T14:08:54.534Z,13.20
2024-02-08T14:11:21.918Z,14.13
2024-02-08T14:13:49.353Z,17.38
2024-02-08T14:16:18.178Z,16.52
2024-02-08T14:18:46.149Z,15.85
2024-02-08T14:21:15.483Z,15.82
2024-02-08T14:23:43.116Z,13.17
2024-02-08T14:26:10.377Z,13.57
2024-02-08T14:28:39.141Z,14.63
2024-02-08T14:31:07.643Z,13.77
2024-02-08T14:33:34.647Z,14.48
2024-02-08T14:36:02.401Z,14.37
2024-02-08T14:38:32.418Z,13.52
2024-02-08T14:40:59.474Z,15.48
2024-02-08T14:43:26.480Z,13.30
2024-02-08T14:45:54.477Z,16.38
2024-02-08T14:48:22.091Z,18.47
2024-02-08T14:50:49.283Z,13.30
2024-02-08T14:53:17.037Z,16.58
2024-02-08T14:55:45.362Z,13.88
2024-02-08T14:58:16.773Z,13.93
2024-02-08T15:00:47.465Z,14.27
2024-02-08T15:03:17.467Z,12.70
2024-02-08T15:05:44.953Z,19.52
2024-02-08T15:08:12.042Z,15.18
2024-02-08T15:10:39.237Z,12.85
2024-02-08T15:13:07.230Z,12.90
2024-02-08T15:15:42.179Z,11.90
2024-02-08T15:18:11.896Z,12.10
2024-02-08T15:20:48.563Z,12.68
2024-02-08T15:23:16.723Z,13.30
2024-02-08T15:25:46.533Z,11.97
2024-02-08T15:28:17.597Z,12.15
2024-02-08T15:30:47.916Z,11.88
2024-02-08T15:33:14.959Z,11.95
2024-02-08T15:35:42.028Z,15.27
2024-02-08T15:38:12.537Z,13.13
2024-02-08T15:40:42.642Z,12.68
2024-02-08T15:43:15.269Z,12.45
2024-02-08T15:45:45.669Z,11.35
2024-02-08T15:48:15.671Z,10.65
2024-02-08T15:50:45.300Z,17.23
2024-02-08T15:53:20.312Z,14.63
2024-02-08T15:55:51.974Z,17.17
2024-02-08T15:58:19.024Z,12.65
2024-02-08T16:00:49.346Z,11.95
2024-02-08T16:03:16.785Z,14.93
2024-02-08T16:05:44.543Z,13.02
2024-02-08T16:08:11.920Z,11.32
2024-02-08T16:10:41.814Z,11.85
2024-02-08T16:13:11.653Z,13.18
2024-02-08T16:15:47.201Z,13.10
2024-02-08T16:18:20.124Z,29.70
2024-02-08T16:20:47.634Z,12.32
2024-02-08T16:23:14.823Z,11.77
2024-02-08T16:25:44.629Z,11.00
2024-02-08T16:28:14.516Z,11.93
2024-02-08T16:30:46.092Z,10.90
2024-02-08T16:33:13.784Z,10.57
2024-02-08T16:35:51.118Z,13.85
2024-02-08T16:38:18.402Z,11.27
2024-02-08T16:40:45.880Z,10.53
2024-02-08T16:43:16.286Z,12.98
2024-02-08T16:45:44.456Z,10.30
2024-02-08T16:48:17.608Z,10.98
2024-02-08T16:50:46.277Z,9.98
2024-02-08T16:53:14.991Z,10.27
2024-02-08T16:55:55.856Z,9.80
2024-02-08T16:58:26.112Z,9.88
2024-02-08T17:00:53.165Z,10.48
2024-02-08T17:03:20.167Z,10.30
2024-02-08T17:05:47.495Z,10.93
2024-02-08T17:08:17.700Z,10.68
2024-02-08T17:10:48.786Z,10.52
2024-02-08T17:13:16.100Z,12.20
2024-02-08T17:15:46.340Z,11.55
2024-02-08T17:18:13.435Z,11.20
2024-02-08T17:20:46.839Z,9.80
2024-02-08T17:23:17.037Z,11.35
2024-02-08T17:25:47.519Z,10.27
2024-02-08T17:28:20.161Z,11.48
2024-02-08T17:30:47.747Z,11.03
2024-02-08T17:33:15.108Z,9.98
2024-02-08T17:35:42.487Z,9.73
2024-02-08T17:38:15.584Z,9.57
2024-02-08T17:40:44.432Z,11.25
2024-02-08T17:43:12.071Z,11.67
2024-02-08T17:45:47.513Z,10.85
2024-02-08T17:48:17.209Z,11.73
2024-02-08T17:50:47.788Z,11.38
2024-02-08T17:53:15.677Z,20.77
2024-02-08T17:55:44.870Z,16.10
2024-02-08T17:58:12.152Z,15.55
2024-02-08T18:00:41.836Z,16.25
2024-02-08T18:03:09.244Z,17.88
2024-02-08T18:05:38.525Z,14.50
2024-02-08T18:08:05.825Z,13.27
2024-02-08T18:10:32.977Z,12.25
2024-02-08T18:13:02.493Z,14.00
2024-02-08T18:15:32.210Z,12.35
2024-02-08T18:17:59.359Z,12.32
2024-02-08T18:20:29.431Z,14.73
2024-02-08T18:22:59.253Z,13.73
2024-02-08T18:25:26.939Z,13.73
2024-02-08T18:27:53.963Z,12.88
2024-02-08T18:30:21.053Z,13.07
2024-02-08T18:32:48.960Z,12.60
2024-02-08T18:35:16.542Z,13.70
2024-02-08T18:37:44.232Z,14.68
2024-02-08T18:40:17.803Z,14.43
2024-02-08T18:42:45.251Z,14.23
2024-02-08T18:45:14.251Z,14.70
2024-02-08T18:47:47.173Z,14.55
2024-02-08T18:50:17.554Z,14.25
2024-02-08T18:52:47.698Z,15.32
2024-02-08T18:55:23.527Z,14.55
2024-02-08T18:57:50.649Z,13.13
2024-02-08T19:00:20.745Z,15.77
2024-02-08T19:02:47.734Z,13.85
2024-02-08T19:05:17.398Z,14.50
2024-02-08T19:07:45.374Z,16.42
2024-02-08T19:10:16.520Z,15.70
2024-02-08T19:12:53.238Z,19.60
2024-02-08T19:15:20.574Z,16.27
2024-02-08T19:18:00.258Z,17.25
2024-02-08T19:20:34.202Z,16.15
2024-02-08T19:23:03.959Z,15.80
2024-02-08T19:25:31.919Z,16.38
2024-02-08T19:27:59.386Z,16.63
2024-02-08T19:30:27.728Z,22.65
2024-02-08T19:32:54.783Z,18.95
2024-02-08T19:35:22.258Z,16.67
2024-02-08T19:37:52.344Z,15.05
2024-02-08T19:40:19.891Z,16.58
2024-02-08T19:42:47.290Z,17.15
2024-02-08T19:45:25.636Z,16.45
2024-02-08T19:47:53.152Z,17.80
2024-02-08T19:50:23.325Z,17.67
2024-02-08T19:52:50.470Z,18.55
2024-02-08T19:55:17.773Z,16.02
2024-02-08T19:57:44.836Z,20.75
2024-02-08T20:00:21.063Z,23.57
2024-02-08T20:02:52.194Z,19.48
2024-02-08T20:05:19.685Z,19.25
2024-02-08T20:07:49.533Z,19.58
2024-02-08T20:10:17.504Z,17.25
2024-02-08T20:12:47.616Z,19.70
2024-02-08T20:15:18.324Z,17.98
2024-02-08T20:17:46.780Z,18.90
2024-02-08T20:20:24.852Z,17.63
2024-02-08T20:22:54.668Z,17.38
2024-02-08T20:25:23.603Z,16.27
2024-02-08T20:27:50.641Z,17.23
2024-02-08T20:30:24.241Z,21.90
2024-02-08T20:32:54.649Z,19.02
2024-02-08T20:35:31.144Z,17.48
2024-02-08T20:38:01.151Z,16.03
2024-02-08T20:40:30.659Z,17.35
2024-02-08T20:42:57.844Z,20.58
2024-02-08T20:45:24.817Z,18.35
2024-02-08T20:47:52.101Z,31.00
2024-02-08T20:50:22.497Z,17.37
2024-02-08T20:52:49.770Z,34.92
2024-02-08T20:55:18.697Z,17.35
2024-02-08T20:57:45.831Z,16.92
2024-02-08T21:00:14.144Z,14.80
2024-02-08T21:02:46.911Z,17.33
2024-02-08T21:05:16.909Z,16.85
2024-02-08T21:07:47.008Z,16.08
2024-02-08T21:10:20.909Z,15.75
2024-02-08T21:12:48.281Z,15.95
2024-02-08T21:15:17.264Z,16.63
2024-02-08T21:17:47.441Z,16.33
2024-02-08T21:20:15.176Z,16.92
2024-02-08T21:22:45.702Z,18.70
2024-02-08T21:25:14.854Z,16.55
2024-02-08T21:27:45.759Z,18.63
2024-02-08T21:30:16.335Z,17.02
2024-02-08T21:32:46.048Z,17.80
2024-02-08T21:35:14.368Z,17.30
2024-02-08T21:37:42.188Z,17.45
2024-02-08T21:40:09.769Z,17.77
2024-02-08T21:42:38.537Z,18.67
2024-02-08T21:45:09.040Z,18.30
2024-02-08T21:47:36.422Z,19.73
2024-02-08T21:50:03.678Z,20.33
2024-02-08T21:52:30.716Z,20.27
2024-02-08T21:54:57.973Z,19.48
2024-02-08T21:57:24.947Z,19.80
2024-02-08T21:59:51.877Z,23.00
2024-02-08T22:02:19.446Z,22.55
2024-02-08T22:04:46.621Z,20.30
2024-02-08T22:07:15.900Z,23.02
2024-02-08T22:09:45.691Z,21.73
2024-02-08T22:12:15.776Z,21.15
2024-02-08T22:14:45.650Z,22.25
2024-02-08T22:17:15.451Z,22.80
2024-02-08T22:19:45.286Z,24.13
2024-02-08T22:22:15.810Z,23.70
2024-02-08T22:24:48.886Z,24.80
2024-02-08T22:27:17.787Z,23.38
2024-02-08T22:29:47.746Z,22.97
2024-02-08T22:32:17.732Z,23.73
2024-02-08T22:34:47.992Z,23.45
2024-02-08T22:37:17.974Z,23.58
2024-02-08T22:39:48.246Z,24.45
2024-02-08T22:42:15.073Z,25.20
2024-02-08T22:44:46.100Z,25.30
2024-02-08T22:47:16.147Z,26.75
2024-02-08T22:49:45.953Z,25.70
2024-02-08T22:52:13.935Z,43.00
2024-02-08T22:54:40.871Z,30.37
2024-02-08T22:57:07.747Z,30.58
2024-02-08T22:59:34.920Z,28.92
2024-02-08T23:02:01.876Z,34.15
2024-02-08T23:04:29.338Z,28.65
2024-02-08T23:06:57.095Z,31.03
2024-02-08T23:09:24.079Z,32.30
2024-02-08T23:11:51.584Z,32.55
2024-02-08T23:14:20.220Z,29.13
2024-02-08T23:16:49.660Z,33.65
2024-02-08T23:19:16.853Z,34.53
2024-02-08T23:21:46.909Z,31.13
2024-02-08T23:24:20.508Z,37.78
2024-02-08T23:26:47.832Z,35.67
2024-02-08T23:29:17.727Z,38.10
2024-02-08T23:31:47.664Z,35.33
2024-02-08T23:34:15.714Z,37.05
2024-02-08T23:36:47.488Z,36.35
2024-02-08T23:39:17.602Z,36.28
2024-02-08T23:41:48.959Z,38.65
2024-02-08T23:44:16.101Z,40.27
2024-02-08T23:46:45.274Z,41.35
2024-02-08T23:49:12.241Z,38.63
2024-02-08T23:51:42.271Z,40.50
2024-02-08T23:54:09.157Z,40.00
2024-02-08T23:56:36.149Z,38.13
2024-02-08T23:59:04.882Z,35.67
